sensor_id;sensor_type;location;lat;lon;timestamp;P1;durP1;ratioP1;P2;durP2;ratioP2
38693;SDS011;24447;43.460;25.744;2024-03-02T00:00:15;31.60;;;11.05;;
38693;SDS011;24447;43.460;25.744;2024-03-02T00:02:41;36.72;;;11.77;;
38693;SDS011;24447;43.460;25.744;2024-03-02T00:05:10;27.45;;;11.98;;
38693;SDS011;24447;43.460;25.744;2024-03-02T00:07:36;39.38;;;12.80;;
38693;SDS011;24447;43.460;25.744;2024-03-02T00:10:07;38.58;;;12.52;;
38693;SDS011;24447;43.460;25.744;2024-03-02T00:12:40;35.00;;;12.05;;
38693;SDS011;24447;43.460;25.744;2024-03-02T00:17:54;40.28;;;13.13;;
38693;SDS011;24447;43.460;25.744;2024-03-02T00:20:21;29.92;;;11.50;;
38693;SDS011;24447;43.460;25.744;2024-03-02T00:22:48;35.60;;;12.07;;
38693;SDS011;24447;43.460;25.744;2024-03-02T00:25:16;38.97;;;13.32;;
38693;SDS011;24447;43.460;25.744;2024-03-02T00:27:46;36.80;;;13.02;;
38693;SDS011;24447;43.460;25.744;2024-03-02T00:32:59;37.97;;;14.40;;
38693;SDS011;24447;43.460;25.744;2024-03-02T00:35:25;35.53;;;11.95;;
38693;SDS011;24447;43.460;25.744;2024-03-02T00:37:51;38.80;;;13.23;;
38693;SDS011;24447;43.460;25.744;2024-03-02T00:40:17;33.50;;;12.40;;
38693;SDS011;24447;43.460;25.744;2024-03-02T00:42:44;38.58;;;14.48;;
38693;SDS011;24447;43.460;25.744;2024-03-02T00:45:10;38.25;;;12.88;;
38693;SDS011;24447;43.460;25.744;2024-03-02T00:47:39;43.35;;;13.25;;
38693;SDS011;24447;43.460;25.744;2024-03-02T00:50:05;32.58;;;11.30;;
38693;SDS011;24447;43.460;25.744;2024-03-02T00:52:31;31.98;;;11.55;;
38693;SDS011;24447;43.460;25.744;2024-03-02T00:54:58;36.00;;;12.85;;
38693;SDS011;24447;43.460;25.744;2024-03-02T00:57:24;32.58;;;12.32;;
38693;SDS011;24447;43.460;25.744;2024-03-02T00:59:51;36.10;;;13.38;;
38693;SDS011;24447;43.460;25.744;2024-03-02T01:02:17;39.17;;;11.85;;
38693;SDS011;24447;43.460;25.744;2024-03-02T01:04:45;28.60;;;12.40;;
38693;SDS011;24447;43.460;25.744;2024-03-02T01:07:11;37.88;;;12.63;;
38693;SDS011;24447;43.460;25.744;2024-03-02T01:09:37;38.10;;;12.57;;
38693;SDS011;24447;43.460;25.744;2024-03-02T01:12:03;35.90;;;11.90;;
38693;SDS011;24447;43.460;25.744;2024-03-02T01:14:29;36.97;;;11.88;;
38693;SDS011;24447;43.460;25.744;2024-03-02T01:16:55;40.78;;;14.45;;
38693;SDS011;24447;43.460;25.744;2024-03-02T01:19:21;34.88;;;14.80;;
38693;SDS011;24447;43.460;25.744;2024-03-02T01:21:47;33.88;;;12.13;;
38693;SDS011;24447;43.460;25.744;2024-03-02T01:24:15;34.50;;;12.30;;
38693;SDS011;24447;43.460;25.744;2024-03-02T01:26:41;30.50;;;10.50;;
38693;SDS011;24447;43.460;25.744;2024-03-02T01:29:07;28.38;;;12.15;;
38693;SDS011;24447;43.460;25.744;2024-03-02T01:31:33;34.95;;;13.27;;
38693;SDS011;24447;43.460;25.744;2024-03-02T01:33:59;34.08;;;12.05;;
38693;SDS011;24447;43.460;25.744;2024-03-02T01:36:25;28.23;;;10.35;;
38693;SDS011;24447;43.460;25.744;2024-03-02T01:38:51;34.33;;;11.48;;
38693;SDS011;24447;43.460;25.744;2024-03-02T01:41:16;30.00;;;12.05;;
38693;SDS011;24447;43.460;25.744;2024-03-02T01:43:42;27.33;;;10.25;;
38693;SDS011;24447;43.460;25.744;2024-03-02T01:46:08;40.17;;;11.98;;
38693;SDS011;24447;43.460;25.744;2024-03-02T01:48:34;31.08;;;10.32;;
38693;SDS011;24447;43.460;25.744;2024-03-02T01:51:00;42.05;;;12.20;;
38693;SDS011;24447;43.460;25.744;2024-03-02T01:53:26;34.35;;;10.27;;
38693;SDS011;24447;43.460;25.744;2024-03-02T01:55:53;34.03;;;12.32;;
38693;SDS011;24447;43.460;25.744;2024-03-02T01:58:19;33.33;;;12.13;;
38693;SDS011;24447;43.460;25.744;2024-03-02T02:00:45;34.60;;;11.57;;
38693;SDS011;24447;43.460;25.744;2024-03-02T02:03:11;28.80;;;11.13;;
38693;SDS011;24447;43.460;25.744;2024-03-02T02:05:37;34.85;;;10.77;;
38693;SDS011;24447;43.460;25.744;2024-03-02T02:08:03;37.88;;;11.25;;
38693;SDS011;24447;43.460;25.744;2024-03-02T02:10:29;32.65;;;12.10;;
38693;SDS011;24447;43.460;25.744;2024-03-02T02:12:55;35.25;;;10.63;;
38693;SDS011;24447;43.460;25.744;2024-03-02T02:15:30;27.15;;;9.60;;
38693;SDS011;24447;43.460;25.744;2024-03-02T02:17:57;27.65;;;11.50;;
38693;SDS011;24447;43.460;25.744;2024-03-02T02:20:24;29.95;;;11.57;;
38693;SDS011;24447;43.460;25.744;2024-03-02T02:25:23;31.50;;;9.82;;
38693;SDS011;24447;43.460;25.744;2024-03-02T02:27:49;28.85;;;10.88;;
38693;SDS011;24447;43.460;25.744;2024-03-02T02:30:25;27.00;;;9.18;;
38693;SDS011;24447;43.460;25.744;2024-03-02T02:32:55;22.65;;;9.05;;
38693;SDS011;24447;43.460;25.744;2024-03-02T02:35:22;22.20;;;7.63;;
38693;SDS011;24447;43.460;25.744;2024-03-02T02:37:49;30.80;;;8.93;;
38693;SDS011;24447;43.460;25.744;2024-03-02T02:40:16;24.95;;;9.93;;
38693;SDS011;24447;43.460;25.744;2024-03-02T02:42:43;30.55;;;9.68;;
38693;SDS011;24447;43.460;25.744;2024-03-02T02:45:10;29.00;;;10.45;;
38693;SDS011;24447;43.460;25.744;2024-03-02T02:47:38;27.60;;;9.30;;
38693;SDS011;24447;43.460;25.744;2024-03-02T02:50:04;31.48;;;7.60;;
38693;SDS011;24447;43.460;25.744;2024-03-02T02:52:34;27.17;;;9.68;;
38693;SDS011;24447;43.460;25.744;2024-03-02T02:55:03;29.73;;;9.18;;
38693;SDS011;24447;43.460;25.744;2024-03-02T02:57:33;21.40;;;8.57;;
38693;SDS011;24447;43.460;25.744;2024-03-02T03:02:38;24.13;;;8.65;;
38693;SDS011;24447;43.460;25.744;2024-03-02T03:05:05;30.30;;;9.30;;
38693;SDS011;24447;43.460;25.744;2024-03-02T03:07:33;24.80;;;8.07;;
38693;SDS011;24447;43.460;25.744;2024-03-02T03:10:02;29.65;;;10.07;;
38693;SDS011;24447;43.460;25.744;2024-03-02T03:12:30;22.80;;;9.13;;
38693;SDS011;24447;43.460;25.744;2024-03-02T03:14:59;23.98;;;8.48;;
38693;SDS011;24447;43.460;25.744;2024-03-02T03:17:25;29.80;;;6.93;;
38693;SDS011;24447;43.460;25.744;2024-03-02T03:19:52;16.45;;;6.75;;
38693;SDS011;24447;43.460;25.744;2024-03-02T03:22:18;23.40;;;8.68;;
38693;SDS011;24447;43.460;25.744;2024-03-02T03:24:44;35.38;;;9.63;;
38693;SDS011;24447;43.460;25.744;2024-03-02T03:27:10;25.65;;;9.38;;
38693;SDS011;24447;43.460;25.744;2024-03-02T03:29:36;23.17;;;7.28;;
38693;SDS011;24447;43.460;25.744;2024-03-02T03:32:02;21.10;;;9.57;;
38693;SDS011;24447;43.460;25.744;2024-03-02T03:34:32;18.95;;;7.00;;
38693;SDS011;24447;43.460;25.744;2024-03-02T03:36:58;20.15;;;8.43;;
38693;SDS011;24447;43.460;25.744;2024-03-02T03:39:24;22.33;;;9.70;;
38693;SDS011;24447;43.460;25.744;2024-03-02T03:41:50;21.98;;;8.27;;
38693;SDS011;24447;43.460;25.744;2024-03-02T03:44:16;27.13;;;8.32;;
38693;SDS011;24447;43.460;25.744;2024-03-02T03:46:43;16.90;;;6.55;;
38693;SDS011;24447;43.460;25.744;2024-03-02T03:49:09;29.92;;;9.05;;
38693;SDS011;24447;43.460;25.744;2024-03-02T03:51:35;24.40;;;9.10;;
38693;SDS011;24447;43.460;25.744;2024-03-02T03:54:00;19.95;;;9.05;;
38693;SDS011;24447;43.460;25.744;2024-03-02T03:56:26;22.90;;;8.43;;
38693;SDS011;24447;43.460;25.744;2024-03-02T03:58:52;31.23;;;10.65;;
38693;SDS011;24447;43.460;25.744;2024-03-02T04:01:18;28.52;;;9.63;;
38693;SDS011;24447;43.460;25.744;2024-03-02T04:03:44;29.90;;;11.20;;
38693;SDS011;24447;43.460;25.744;2024-03-02T04:06:10;31.10;;;10.80;;
38693;SDS011;24447;43.460;25.744;2024-03-02T04:08:36;36.15;;;12.52;;
38693;SDS011;24447;43.460;25.744;2024-03-02T04:11:02;26.60;;;8.90;;
38693;SDS011;24447;43.460;25.744;2024-03-02T04:13:29;21.17;;;8.15;;
38693;SDS011;24447;43.460;25.744;2024-03-02T04:15:55;25.55;;;8.48;;
38693;SDS011;24447;43.460;25.744;2024-03-02T04:18:20;24.63;;;7.30;;
38693;SDS011;24447;43.460;25.744;2024-03-02T04:20:46;32.30;;;7.80;;
38693;SDS011;24447;43.460;25.744;2024-03-02T04:23:12;28.92;;;10.00;;
38693;SDS011;24447;43.460;25.744;2024-03-02T04:25:38;38.28;;;14.00;;
38693;SDS011;24447;43.460;25.744;2024-03-02T04:28:04;37.00;;;13.75;;
38693;SDS011;24447;43.460;25.744;2024-03-02T04:30:30;34.75;;;12.25;;
38693;SDS011;24447;43.460;25.744;2024-03-02T04:32:56;34.47;;;14.07;;
38693;SDS011;24447;43.460;25.744;2024-03-02T04:35:22;36.47;;;14.20;;
38693;SDS011;24447;43.460;25.744;2024-03-02T04:37:47;31.63;;;12.95;;
38693;SDS011;24447;43.460;25.744;2024-03-02T04:40:13;40.25;;;16.52;;
38693;SDS011;24447;43.460;25.744;2024-03-02T04:42:39;41.60;;;17.27;;
38693;SDS011;24447;43.460;25.744;2024-03-02T04:45:05;33.83;;;14.00;;
38693;SDS011;24447;43.460;25.744;2024-03-02T04:47:32;39.25;;;14.13;;
38693;SDS011;24447;43.460;25.744;2024-03-02T04:49:58;35.00;;;15.20;;
38693;SDS011;24447;43.460;25.744;2024-03-02T04:52:24;40.83;;;15.85;;
38693;SDS011;24447;43.460;25.744;2024-03-02T04:54:49;39.88;;;14.13;;
38693;SDS011;24447;43.460;25.744;2024-03-02T04:57:34;31.10;;;12.63;;
38693;SDS011;24447;43.460;25.744;2024-03-02T05:00:00;33.30;;;12.45;;
38693;SDS011;24447;43.460;25.744;2024-03-02T05:02:26;33.78;;;11.73;;
38693;SDS011;24447;43.460;25.744;2024-03-02T05:04:51;41.58;;;13.65;;
38693;SDS011;24447;43.460;25.744;2024-03-02T05:07:17;29.80;;;11.55;;
38693;SDS011;24447;43.460;25.744;2024-03-02T05:09:43;38.50;;;14.07;;
38693;SDS011;24447;43.460;25.744;2024-03-02T05:12:09;36.00;;;11.90;;
38693;SDS011;24447;43.460;25.744;2024-03-02T05:14:54;32.20;;;11.13;;
38693;SDS011;24447;43.460;25.744;2024-03-02T05:17:20;31.55;;;13.35;;
38693;SDS011;24447;43.460;25.744;2024-03-02T05:19:45;28.73;;;10.88;;
38693;SDS011;24447;43.460;25.744;2024-03-02T05:22:11;45.17;;;16.50;;
38693;SDS011;24447;43.460;25.744;2024-03-02T05:24:37;58.13;;;22.80;;
38693;SDS011;24447;43.460;25.744;2024-03-02T05:27:03;51.03;;;20.38;;
38693;SDS011;24447;43.460;25.744;2024-03-02T05:29:29;50.25;;;21.25;;
38693;SDS011;24447;43.460;25.744;2024-03-02T05:31:55;42.33;;;18.65;;
38693;SDS011;24447;43.460;25.744;2024-03-02T05:34:21;46.83;;;21.48;;
38693;SDS011;24447;43.460;25.744;2024-03-02T05:36:47;42.35;;;17.98;;
38693;SDS011;24447;43.460;25.744;2024-03-02T05:39:12;41.00;;;17.83;;
38693;SDS011;24447;43.460;25.744;2024-03-02T05:41:39;41.97;;;18.02;;
38693;SDS011;24447;43.460;25.744;2024-03-02T05:44:04;50.83;;;19.73;;
38693;SDS011;24447;43.460;25.744;2024-03-02T05:46:30;44.35;;;19.45;;
38693;SDS011;24447;43.460;25.744;2024-03-02T05:48:56;48.25;;;20.10;;
38693;SDS011;24447;43.460;25.744;2024-03-02T05:51:22;50.42;;;19.77;;
38693;SDS011;24447;43.460;25.744;2024-03-02T05:53:48;47.05;;;20.95;;
38693;SDS011;24447;43.460;25.744;2024-03-02T05:56:14;48.85;;;22.30;;
38693;SDS011;24447;43.460;25.744;2024-03-02T05:58:40;59.25;;;23.15;;
38693;SDS011;24447;43.460;25.744;2024-03-02T06:01:25;48.20;;;20.48;;
38693;SDS011;24447;43.460;25.744;2024-03-02T06:03:56;53.10;;;23.23;;
38693;SDS011;24447;43.460;25.744;2024-03-02T06:06:23;74.77;;;24.37;;
38693;SDS011;24447;43.460;25.744;2024-03-02T06:08:49;57.70;;;24.42;;
38693;SDS011;24447;43.460;25.744;2024-03-02T06:11:16;56.47;;;24.05;;
38693;SDS011;24447;43.460;25.744;2024-03-02T06:13:42;70.00;;;29.15;;
38693;SDS011;24447;43.460;25.744;2024-03-02T06:16:08;87.97;;;45.35;;
38693;SDS011;24447;43.460;25.744;2024-03-02T06:18:34;93.25;;;40.53;;
38693;SDS011;24447;43.460;25.744;2024-03-02T06:21:00;73.00;;;32.42;;
38693;SDS011;24447;43.460;25.744;2024-03-02T06:23:26;45.50;;;19.23;;
38693;SDS011;24447;43.460;25.744;2024-03-02T06:25:52;42.33;;;19.58;;
38693;SDS011;24447;43.460;25.744;2024-03-02T06:28:18;46.97;;;18.70;;
38693;SDS011;24447;43.460;25.744;2024-03-02T06:30:44;40.22;;;17.75;;
38693;SDS011;24447;43.460;25.744;2024-03-02T06:33:10;44.72;;;17.40;;
38693;SDS011;24447;43.460;25.744;2024-03-02T06:35:36;48.10;;;20.38;;
38693;SDS011;24447;43.460;25.744;2024-03-02T06:38:02;62.28;;;28.00;;
38693;SDS011;24447;43.460;25.744;2024-03-02T06:40:29;65.93;;;31.08;;
38693;SDS011;24447;43.460;25.744;2024-03-02T06:42:55;62.08;;;31.52;;
38693;SDS011;24447;43.460;25.744;2024-03-02T06:45:21;63.80;;;29.13;;
38693;SDS011;24447;43.460;25.744;2024-03-02T06:47:46;54.10;;;27.38;;
38693;SDS011;24447;43.460;25.744;2024-03-02T06:50:12;79.85;;;27.77;;
38693;SDS011;24447;43.460;25.744;2024-03-02T06:52:38;53.30;;;26.35;;
38693;SDS011;24447;43.460;25.744;2024-03-02T06:55:04;47.53;;;23.48;;
38693;SDS011;24447;43.460;25.744;2024-03-02T06:57:31;51.53;;;24.60;;
38693;SDS011;24447;43.460;25.744;2024-03-02T06:59:57;63.33;;;25.70;;
38693;SDS011;24447;43.460;25.744;2024-03-02T07:02:26;53.85;;;23.92;;
38693;SDS011;24447;43.460;25.744;2024-03-02T07:04:56;63.83;;;26.63;;
38693;SDS011;24447;43.460;25.744;2024-03-02T07:07:21;54.95;;;22.33;;
38693;SDS011;24447;43.460;25.744;2024-03-02T07:09:47;63.05;;;27.20;;
38693;SDS011;24447;43.460;25.744;2024-03-02T07:12:13;64.72;;;26.00;;
38693;SDS011;24447;43.460;25.744;2024-03-02T07:14:39;59.55;;;23.65;;
38693;SDS011;24447;43.460;25.744;2024-03-02T07:17:24;58.80;;;23.13;;
38693;SDS011;24447;43.460;25.744;2024-03-02T07:19:50;62.63;;;24.58;;
38693;SDS011;24447;43.460;25.744;2024-03-02T07:22:16;62.40;;;23.83;;
38693;SDS011;24447;43.460;25.744;2024-03-02T07:24:43;52.70;;;22.83;;
38693;SDS011;24447;43.460;25.744;2024-03-02T07:27:09;75.75;;;35.53;;
38693;SDS011;24447;43.460;25.744;2024-03-02T07:29:35;71.90;;;29.77;;
38693;SDS011;24447;43.460;25.744;2024-03-02T07:32:02;59.78;;;24.98;;
38693;SDS011;24447;43.460;25.744;2024-03-02T07:34:28;58.95;;;22.90;;
38693;SDS011;24447;43.460;25.744;2024-03-02T07:36:54;44.05;;;18.98;;
38693;SDS011;24447;43.460;25.744;2024-03-02T07:39:20;35.25;;;16.60;;
38693;SDS011;24447;43.460;25.744;2024-03-02T07:41:45;33.85;;;14.20;;
38693;SDS011;24447;43.460;25.744;2024-03-02T07:44:12;39.17;;;15.18;;
38693;SDS011;24447;43.460;25.744;2024-03-02T07:46:42;31.30;;;13.60;;
38693;SDS011;24447;43.460;25.744;2024-03-02T07:49:09;33.25;;;15.02;;
38693;SDS011;24447;43.460;25.744;2024-03-02T07:51:35;33.67;;;13.93;;
38693;SDS011;24447;43.460;25.744;2024-03-02T07:54:01;70.80;;;26.33;;
38693;SDS011;24447;43.460;25.744;2024-03-02T07:56:27;54.88;;;21.25;;
38693;SDS011;24447;43.460;25.744;2024-03-02T07:58:53;38.78;;;18.23;;
38693;SDS011;24447;43.460;25.744;2024-03-02T08:01:22;35.88;;;15.02;;
38693;SDS011;24447;43.460;25.744;2024-03-02T08:03:48;43.70;;;16.77;;
38693;SDS011;24447;43.460;25.744;2024-03-02T08:06:15;44.25;;;17.50;;
38693;SDS011;24447;43.460;25.744;2024-03-02T08:08:42;37.05;;;16.10;;
38693;SDS011;24447;43.460;25.744;2024-03-02T08:11:08;33.72;;;13.02;;
38693;SDS011;24447;43.460;25.744;2024-03-02T08:13:34;38.95;;;15.45;;
38693;SDS011;24447;43.460;25.744;2024-03-02T08:16:00;35.33;;;12.55;;
38693;SDS011;24447;43.460;25.744;2024-03-02T08:18:28;31.33;;;11.35;;
38693;SDS011;24447;43.460;25.744;2024-03-02T08:20:54;32.97;;;11.73;;
38693;SDS011;24447;43.460;25.744;2024-03-02T08:23:20;38.05;;;12.45;;
38693;SDS011;24447;43.460;25.744;2024-03-02T08:25:46;28.27;;;12.02;;
38693;SDS011;24447;43.460;25.744;2024-03-02T08:28:12;35.95;;;12.93;;
38693;SDS011;24447;43.460;25.744;2024-03-02T08:30:38;24.35;;;10.48;;
38693;SDS011;24447;43.460;25.744;2024-03-02T08:33:04;32.05;;;12.40;;
38693;SDS011;24447;43.460;25.744;2024-03-02T08:35:30;29.40;;;11.18;;
38693;SDS011;24447;43.460;25.744;2024-03-02T08:38:00;32.55;;;12.65;;
38693;SDS011;24447;43.460;25.744;2024-03-02T08:40:28;31.63;;;13.18;;
38693;SDS011;24447;43.460;25.744;2024-03-02T08:42:54;30.77;;;12.88;;
38693;SDS011;24447;43.460;25.744;2024-03-02T08:45:20;38.35;;;16.38;;
38693;SDS011;24447;43.460;25.744;2024-03-02T08:47:46;28.08;;;10.82;;
38693;SDS011;24447;43.460;25.744;2024-03-02T08:50:12;27.83;;;8.77;;
38693;SDS011;24447;43.460;25.744;2024-03-02T08:52:38;25.02;;;9.45;;
38693;SDS011;24447;43.460;25.744;2024-03-02T08:55:04;24.10;;;8.85;;
38693;SDS011;24447;43.460;25.744;2024-03-02T08:57:31;24.08;;;9.25;;
38693;SDS011;24447;43.460;25.744;2024-03-02T08:59:57;23.30;;;9.30;;
38693;SDS011;24447;43.460;25.744;2024-03-02T09:02:23;28.58;;;9.98;;
38693;SDS011;24447;43.460;25.744;2024-03-02T09:04:49;23.92;;;8.85;;
38693;SDS011;24447;43.460;25.744;2024-03-02T09:07:15;20.42;;;8.52;;
38693;SDS011;24447;43.460;25.744;2024-03-02T09:09:40;24.65;;;8.82;;
38693;SDS011;24447;43.460;25.744;2024-03-02T09:12:06;36.05;;;9.18;;
38693;SDS011;24447;43.460;25.744;2024-03-02T09:14:33;21.10;;;8.48;;
38693;SDS011;24447;43.460;25.744;2024-03-02T09:16:59;21.88;;;10.25;;
38693;SDS011;24447;43.460;25.744;2024-03-02T09:19:25;22.95;;;9.18;;
38693;SDS011;24447;43.460;25.744;2024-03-02T09:21:51;23.58;;;7.30;;
38693;SDS011;24447;43.460;25.744;2024-03-02T09:24:16;29.92;;;9.77;;
38693;SDS011;24447;43.460;25.744;2024-03-02T09:26:42;23.88;;;9.82;;
38693;SDS011;24447;43.460;25.744;2024-03-02T09:29:08;35.90;;;8.57;;
38693;SDS011;24447;43.460;25.744;2024-03-02T09:31:38;26.10;;;9.15;;
38693;SDS011;24447;43.460;25.744;2024-03-02T09:34:08;55.65;;;14.05;;
38693;SDS011;24447;43.460;25.744;2024-03-02T09:36:34;20.73;;;8.32;;
38693;SDS011;24447;43.460;25.744;2024-03-02T09:39:00;27.30;;;9.63;;
38693;SDS011;24447;43.460;25.744;2024-03-02T09:41:26;18.83;;;8.32;;
38693;SDS011;24447;43.460;25.744;2024-03-02T09:43:52;21.40;;;8.13;;
38693;SDS011;24447;43.460;25.744;2024-03-02T09:46:18;19.67;;;7.97;;
38693;SDS011;24447;43.460;25.744;2024-03-02T09:48:44;19.42;;;7.50;;
38693;SDS011;24447;43.460;25.744;2024-03-02T09:51:11;24.17;;;7.15;;
38693;SDS011;24447;43.460;25.744;2024-03-02T09:53:37;18.25;;;5.95;;
38693;SDS011;24447;43.460;25.744;2024-03-02T09:56:03;19.23;;;8.55;;
38693;SDS011;24447;43.460;25.744;2024-03-02T09:58:32;24.75;;;8.75;;
38693;SDS011;24447;43.460;25.744;2024-03-02T10:00:58;18.65;;;6.75;;
38693;SDS011;24447;43.460;25.744;2024-03-02T10:03:24;21.02;;;8.18;;
38693;SDS011;24447;43.460;25.744;2024-03-02T10:05:50;18.77;;;7.50;;
38693;SDS011;24447;43.460;25.744;2024-03-02T10:08:16;21.92;;;7.68;;
38693;SDS011;24447;43.460;25.744;2024-03-02T10:10:42;20.00;;;7.57;;
38693;SDS011;24447;43.460;25.744;2024-03-02T10:13:12;23.27;;;8.52;;
38693;SDS011;24447;43.460;25.744;2024-03-02T10:15:39;23.02;;;9.13;;
38693;SDS011;24447;43.460;25.744;2024-03-02T10:18:10;18.95;;;6.38;;
38693;SDS011;24447;43.460;25.744;2024-03-02T10:20:37;22.70;;;6.97;;
38693;SDS011;24447;43.460;25.744;2024-03-02T10:23:13;20.00;;;7.38;;
38693;SDS011;24447;43.460;25.744;2024-03-02T10:25:40;20.77;;;6.10;;
38693;SDS011;24447;43.460;25.744;2024-03-02T10:28:06;17.23;;;6.53;;
38693;SDS011;24447;43.460;25.744;2024-03-02T10:30:33;20.70;;;7.05;;
38693;SDS011;24447;43.460;25.744;2024-03-02T10:33:00;16.25;;;5.97;;
38693;SDS011;24447;43.460;25.744;2024-03-02T10:35:27;15.63;;;5.88;;
38693;SDS011;24447;43.460;25.744;2024-03-02T10:37:53;20.95;;;7.68;;
38693;SDS011;24447;43.460;25.744;2024-03-02T10:40:22;22.58;;;8.18;;
38693;SDS011;24447;43.460;25.744;2024-03-02T10:42:49;25.27;;;6.45;;
38693;SDS011;24447;43.460;25.744;2024-03-02T10:45:17;21.38;;;6.80;;
38693;SDS011;24447;43.460;25.744;2024-03-02T10:47:46;19.60;;;5.82;;
38693;SDS011;24447;43.460;25.744;2024-03-02T10:50:12;18.63;;;5.45;;
38693;SDS011;24447;43.460;25.744;2024-03-02T10:52:38;17.08;;;5.40;;
38693;SDS011;24447;43.460;25.744;2024-03-02T10:55:06;17.38;;;6.07;;
38693;SDS011;24447;43.460;25.744;2024-03-02T11:00:33;15.95;;;5.88;;
38693;SDS011;24447;43.460;25.744;2024-03-02T11:03:04;15.95;;;5.10;;
38693;SDS011;24447;43.460;25.744;2024-03-02T11:05:31;13.30;;;5.72;;
38693;SDS011;24447;43.460;25.744;2024-03-02T11:08:06;16.90;;;5.13;;
38693;SDS011;24447;43.460;25.744;2024-03-02T11:10:37;22.83;;;8.10;;
38693;SDS011;24447;43.460;25.744;2024-03-02T11:13:11;18.58;;;6.20;;
38693;SDS011;24447;43.460;25.744;2024-03-02T11:15:39;18.02;;;5.50;;
38693;SDS011;24447;43.460;25.744;2024-03-02T11:18:05;21.90;;;7.53;;
38693;SDS011;24447;43.460;25.744;2024-03-02T11:20:34;15.52;;;5.10;;
38693;SDS011;24447;43.460;25.744;2024-03-02T11:23:06;14.45;;;4.72;;
38693;SDS011;24447;43.460;25.744;2024-03-02T11:25:33;15.50;;;5.68;;
38693;SDS011;24447;43.460;25.744;2024-03-02T11:27:59;15.07;;;6.15;;
38693;SDS011;24447;43.460;25.744;2024-03-02T11:32:59;17.63;;;5.18;;
38693;SDS011;24447;43.460;25.744;2024-03-02T11:35:26;21.35;;;5.63;;
38693;SDS011;24447;43.460;25.744;2024-03-02T11:37:53;12.70;;;5.55;;
38693;SDS011;24447;43.460;25.744;2024-03-02T11:40:23;17.17;;;5.95;;
38693;SDS011;24447;43.460;25.744;2024-03-02T16:14:11;25.55;;;10.10;;
38693;SDS011;24447;43.460;25.744;2024-03-02T16:16:39;22.15;;;8.48;;
38693;SDS011;24447;43.460;25.744;2024-03-02T16:19:05;22.88;;;9.23;;
38693;SDS011;24447;43.460;25.744;2024-03-02T16:21:31;20.00;;;7.05;;
38693;SDS011;24447;43.460;25.744;2024-03-02T16:23:57;29.70;;;7.47;;
38693;SDS011;24447;43.460;25.744;2024-03-02T16:26:25;21.25;;;7.05;;
38693;SDS011;24447;43.460;25.744;2024-03-02T16:28:51;15.30;;;5.68;;
38693;SDS011;24447;43.460;25.744;2024-03-02T16:31:17;15.75;;;6.68;;
38693;SDS011;24447;43.460;25.744;2024-03-02T16:33:46;17.85;;;6.43;;
38693;SDS011;24447;43.460;25.744;2024-03-02T16:36:12;17.73;;;7.18;;
38693;SDS011;24447;43.460;25.744;2024-03-02T16:38:38;22.25;;;9.35;;
38693;SDS011;24447;43.460;25.744;2024-03-02T16:41:05;27.73;;;9.88;;
38693;SDS011;24447;43.460;25.744;2024-03-02T16:43:32;28.75;;;12.52;;
38693;SDS011;24447;43.460;25.744;2024-03-02T16:45:58;35.08;;;16.73;;
38693;SDS011;24447;43.460;25.744;2024-03-02T16:48:24;35.67;;;11.10;;
38693;SDS011;24447;43.460;25.744;2024-03-02T16:50:49;33.63;;;11.75;;
38693;SDS011;24447;43.460;25.744;2024-03-02T16:53:16;45.58;;;19.40;;
38693;SDS011;24447;43.460;25.744;2024-03-02T16:55:42;34.28;;;15.15;;
38693;SDS011;24447;43.460;25.744;2024-03-02T16:58:08;28.05;;;11.07;;
38693;SDS011;24447;43.460;25.744;2024-03-02T17:00:34;35.47;;;13.43;;
38693;SDS011;24447;43.460;25.744;2024-03-02T17:03:00;30.75;;;12.65;;
38693;SDS011;24447;43.460;25.744;2024-03-02T17:05:26;29.85;;;11.23;;
38693;SDS011;24447;43.460;25.744;2024-03-02T17:07:52;31.98;;;12.95;;
38693;SDS011;24447;43.460;25.744;2024-03-02T17:10:18;35.72;;;14.60;;
38693;SDS011;24447;43.460;25.744;2024-03-02T17:12:44;48.70;;;12.40;;
38693;SDS011;24447;43.460;25.744;2024-03-02T17:15:10;38.70;;;15.35;;
38693;SDS011;24447;43.460;25.744;2024-03-02T17:17:35;41.25;;;15.23;;
38693;SDS011;24447;43.460;25.744;2024-03-02T17:20:02;32.67;;;12.00;;
38693;SDS011;24447;43.460;25.744;2024-03-02T17:22:29;30.45;;;13.05;;
38693;SDS011;24447;43.460;25.744;2024-03-02T17:24:56;35.05;;;11.38;;
38693;SDS011;24447;43.460;25.744;2024-03-02T17:27:22;27.17;;;10.77;;
38693;SDS011;24447;43.460;25.744;2024-03-02T17:29:48;34.90;;;12.57;;
38693;SDS011;24447;43.460;25.744;2024-03-02T17:32:14;27.48;;;10.45;;
38693;SDS011;24447;43.460;25.744;2024-03-02T17:34:40;33.30;;;11.82;;
38693;SDS011;24447;43.460;25.744;2024-03-02T17:37:06;27.08;;;10.52;;
38693;SDS011;24447;43.460;25.744;2024-03-02T17:39:32;24.60;;;7.70;;
38693;SDS011;24447;43.460;25.744;2024-03-02T17:41:58;21.63;;;8.13;;
38693;SDS011;24447;43.460;25.744;2024-03-02T17:44:24;28.67;;;9.15;;
38693;SDS011;24447;43.460;25.744;2024-03-02T17:46:50;26.20;;;11.07;;
38693;SDS011;24447;43.460;25.744;2024-03-02T17:49:15;19.08;;;9.13;;
38693;SDS011;24447;43.460;25.744;2024-03-02T17:51:41;21.35;;;8.65;;
38693;SDS011;24447;43.460;25.744;2024-03-02T17:54:07;28.85;;;10.18;;
38693;SDS011;24447;43.460;25.744;2024-03-02T17:56:33;24.42;;;9.15;;
38693;SDS011;24447;43.460;25.744;2024-03-02T17:58:59;25.42;;;10.25;;
38693;SDS011;24447;43.460;25.744;2024-03-02T18:01:25;25.92;;;10.18;;
38693;SDS011;24447;43.460;25.744;2024-03-02T18:03:50;21.88;;;8.88;;
38693;SDS011;24447;43.460;25.744;2024-03-02T18:06:16;40.25;;;11.85;;
38693;SDS011;24447;43.460;25.744;2024-03-02T18:08:42;26.73;;;8.90;;
38693;SDS011;24447;43.460;25.744;2024-03-02T18:11:08;35.08;;;12.15;;
38693;SDS011;24447;43.460;25.744;2024-03-02T18:13:34;26.15;;;10.25;;
38693;SDS011;24447;43.460;25.744;2024-03-02T18:16:01;32.08;;;11.13;;
38693;SDS011;24447;43.460;25.744;2024-03-02T18:18:27;30.27;;;10.32;;
38693;SDS011;24447;43.460;25.744;2024-03-02T18:20:53;26.80;;;9.43;;
38693;SDS011;24447;43.460;25.744;2024-03-02T18:23:19;30.65;;;10.57;;
38693;SDS011;24447;43.460;25.744;2024-03-02T18:25:45;27.73;;;11.40;;
38693;SDS011;24447;43.460;25.744;2024-03-02T18:28:13;24.30;;;10.75;;
38693;SDS011;24447;43.460;25.744;2024-03-02T18:30:40;26.67;;;11.23;;
38693;SDS011;24447;43.460;25.744;2024-03-02T18:33:06;29.48;;;13.77;;
38693;SDS011;24447;43.460;25.744;2024-03-02T18:35:32;36.25;;;12.73;;
38693;SDS011;24447;43.460;25.744;2024-03-02T18:37:58;40.03;;;11.45;;
38693;SDS011;24447;43.460;25.744;2024-03-02T18:40:24;38.47;;;13.95;;
38693;SDS011;24447;43.460;25.744;2024-03-02T18:42:50;32.90;;;11.65;;
38693;SDS011;24447;43.460;25.744;2024-03-02T18:45:16;27.33;;;11.07;;
38693;SDS011;24447;43.460;25.744;2024-03-02T18:47:43;34.47;;;15.00;;
38693;SDS011;24447;43.460;25.744;2024-03-02T18:50:09;28.58;;;11.48;;
38693;SDS011;24447;43.460;25.744;2024-03-02T18:52:36;28.55;;;11.30;;
38693;SDS011;24447;43.460;25.744;2024-03-02T18:55:03;29.02;;;12.00;;
38693;SDS011;24447;43.460;25.744;2024-03-02T18:57:29;33.67;;;11.48;;